createdAt,value
2022-11-24T00:04:31.883Z,8.4
2022-11-24T00:33:31.144Z,8.3
2022-11-24T01:02:53.952Z,8.3
2022-11-24T01:32:11.594Z,8.2
2022-11-24T02:01:30.120Z,7.9
2022-11-24T02:30:43.651Z,7.6
2022-11-24T02:59:49.804Z,7.3
2022-11-24T03:28:51.377Z,7.9
2022-11-24T03:58:05.900Z,8
2022-11-24T04:27:11.038Z,7.9
2022-11-24T04:56:26.528Z,8
2022-11-24T05:25:26.583Z,8
2022-11-24T05:54:40.628Z,8.1
2022-11-24T06:23:55.888Z,7.9
2022-11-24T06:52:48.139Z,7.8
2022-11-24T07:21:56.579Z,7.8
2022-11-24T07:50:56.837Z,7.8
2022-11-24T08:19:54.410Z,7.7
2022-11-24T08:48:53.761Z,7.9
2022-11-24T09:18:02.765Z,8.2
2022-11-24T09:46:59.233Z,8.8
2022-11-24T10:16:06.738Z,9.4
2022-11-24T10:45:09.291Z,10.1
2022-11-24T11:14:09.466Z,10.8
2022-11-24T11:43:22.243Z,11.2
2022-11-24T12:12:28.254Z,12.1
2022-11-24T12:41:53.088Z,12.3
2022-11-24T13:10:58.624Z,12.7
2022-11-24T13:39:58.650Z,12.9
2022-11-24T14:08:57.960Z,12.1
2022-11-24T14:38:12.602Z,11.5
2022-11-24T15:07:30.157Z,11.3
2022-11-24T15:36:30.636Z,10.8
2022-11-24T16:05:41.856Z,9.9
2022-11-24T16:35:01.158Z,8.9
2022-11-24T17:04:17.073Z,8.6
2022-11-24T17:33:32.006Z,8.5
2022-11-24T18:02:49.211Z,8.4
2022-11-24T18:32:00.399Z,8
2022-11-24T19:01:09.849Z,7.8
2022-11-24T19:30:23.427Z,7.7
2022-11-24T19:59:31.125Z,7.5
2022-11-24T20:28:48.998Z,7.3
2022-11-24T20:58:09.083Z,7.2
2022-11-24T21:27:24.114Z,6.8
2022-11-24T21:56:44.322Z,6.3
2022-11-24T22:25:59.115Z,6.2
2022-11-24T22:55:11.278Z,5.9
2022-11-24T23:24:18.826Z,5.2
2022-11-24T23:53:10.571Z,5.5
